createdAt,value
2022-12-26T00:01:26.849Z,9.67
2022-12-26T00:04:51.248Z,10.30
2022-12-26T00:08:08.149Z,9.33
2022-12-26T00:11:17.670Z,9.80
2022-12-26T00:14:21.109Z,9.90
2022-12-26T00:17:26.300Z,10.53
2022-12-26T00:20:41.036Z,10.20
2022-12-26T00:23:44.716Z,9.80
2022-12-26T00:26:55.642Z,10.37
2022-12-26T00:30:04.500Z,9.30
2022-12-26T00:33:44.343Z,9.10
2022-12-26T00:36:54.778Z,9.73
2022-12-26T00:39:59.561Z,9.67
2022-12-26T00:43:05.699Z,9.43
2022-12-26T00:46:10.228Z,9.43
2022-12-26T00:49:14.708Z,8.97
2022-12-26T00:52:18.032Z,9.43
2022-12-26T00:55:21.359Z,9.37
2022-12-26T00:58:25.671Z,9.67
2022-12-26T01:01:31.143Z,8.53
2022-12-26T01:04:39.798Z,9.23
2022-12-26T01:08:22.878Z,8.37
2022-12-26T01:11:10.954Z,8.10
2022-12-26T01:14:19.065Z,8.00
2022-12-26T01:17:22.539Z,7.13
2022-12-26T01:20:29.197Z,7.57
2022-12-26T01:23:32.450Z,7.60
2022-12-26T01:26:35.554Z,7.90
2022-12-26T01:29:38.573Z,8.33
2022-12-26T01:32:44.263Z,7.47
2022-12-26T01:35:53.580Z,8.47
2022-12-26T01:38:56.758Z,7.77
2022-12-26T01:42:02.913Z,8.10
2022-12-26T01:45:19.211Z,7.57
2022-12-26T01:48:26.035Z,7.07
2022-12-26T01:51:42.331Z,7.53
2022-12-26T01:54:49.473Z,7.20
2022-12-26T01:58:01.888Z,7.50
2022-12-26T02:01:09.051Z,7.50
2022-12-26T02:04:34.549Z,7.77
2022-12-26T02:07:43.019Z,6.73
2022-12-26T02:10:54.914Z,7.37
2022-12-26T02:14:00.739Z,7.47
2022-12-26T02:17:04.476Z,7.57
2022-12-26T02:20:18.800Z,7.07
2022-12-26T02:24:32.323Z,7.70
2022-12-26T02:28:02.615Z,7.30
2022-12-26T02:31:14.568Z,7.60
2022-12-26T02:34:24.365Z,7.47
2022-12-26T02:37:46.053Z,8.60
2022-12-26T02:41:06.096Z,8.20
2022-12-26T02:44:38.978Z,8.23
2022-12-26T02:47:56.640Z,8.23
2022-12-26T02:51:28.981Z,7.67
2022-12-26T02:54:56.613Z,7.70
2022-12-26T02:58:26.364Z,8.00
2022-12-26T03:01:52.571Z,8.07
2022-12-26T03:05:19.113Z,8.13
2022-12-26T03:08:48.198Z,10.13
2022-12-26T03:12:15.750Z,10.70
2022-12-26T03:15:22.164Z,9.40
2022-12-26T03:18:58.417Z,7.87
2022-12-26T03:21:52.762Z,10.53
2022-12-26T03:25:17.378Z,9.67
2022-12-26T03:28:20.934Z,10.13
2022-12-26T03:31:23.147Z,8.40
2022-12-26T03:34:28.391Z,8.37
2022-12-26T03:37:50.218Z,7.57
2022-12-26T03:41:19.635Z,11.07
2022-12-26T03:44:53.951Z,10.43
2022-12-26T03:48:25.450Z,8.63
2022-12-26T03:52:13.513Z,8.30
2022-12-26T03:55:44.084Z,7.27
2022-12-26T03:59:14.590Z,7.60
2022-12-26T04:02:37.548Z,8.00
2022-12-26T04:06:03.548Z,7.87
2022-12-26T04:09:31.265Z,7.47
2022-12-26T04:13:01.265Z,8.10
2022-12-26T04:16:33.040Z,7.70
2022-12-26T04:20:07.545Z,7.83
2022-12-26T04:23:33.560Z,7.13
2022-12-26T04:27:02.215Z,7.03
2022-12-26T04:30:26.236Z,7.07
2022-12-26T04:34:02.388Z,6.57
2022-12-26T04:37:28.319Z,7.33
2022-12-26T04:40:53.694Z,7.03
2022-12-26T04:44:06.694Z,6.67
2022-12-26T04:47:12.131Z,7.10
2022-12-26T04:50:15.478Z,7.37
2022-12-26T04:53:19.189Z,6.77
2022-12-26T04:56:22.440Z,6.73
2022-12-26T04:59:26.297Z,7.47
2022-12-26T05:02:48.752Z,7.53
2022-12-26T05:06:11.397Z,6.03
2022-12-26T05:09:39.427Z,6.43
2022-12-26T05:12:42.475Z,6.83
2022-12-26T05:16:03.571Z,7.50
2022-12-26T05:19:29.575Z,6.23
2022-12-26T05:22:53.854Z,6.10
2022-12-26T05:26:17.039Z,7.20
2022-12-26T05:29:20.207Z,6.33
2022-12-26T05:32:40.717Z,6.23
2022-12-26T05:35:45.205Z,5.97
2022-12-26T05:38:49.218Z,7.00
2022-12-26T05:41:55.152Z,6.63
2022-12-26T05:44:58.201Z,6.20
2022-12-26T05:48:02.391Z,5.80
2022-12-26T05:51:07.081Z,6.07
2022-12-26T05:54:10.123Z,6.63
2022-12-26T05:57:13.320Z,6.13
2022-12-26T06:00:18.481Z,6.00
2022-12-26T06:03:21.590Z,6.63
2022-12-26T06:06:27.441Z,6.17
2022-12-26T06:09:30.561Z,6.60
2022-12-26T06:12:34.326Z,6.47
2022-12-26T06:15:39.613Z,5.63
2022-12-26T06:18:43.303Z,6.10
2022-12-26T06:21:47.759Z,6.47
2022-12-26T06:24:51.071Z,6.93
2022-12-26T06:27:54.344Z,5.57
2022-12-26T06:31:04.390Z,6.27
2022-12-26T06:34:07.585Z,6.30
2022-12-26T06:37:12.005Z,6.30
2022-12-26T06:40:15.340Z,5.20
2022-12-26T06:43:21.257Z,5.33
2022-12-26T06:46:28.706Z,5.60
2022-12-26T06:49:33.272Z,5.50
2022-12-26T06:52:40.940Z,6.17
2022-12-26T06:55:47.171Z,5.20
2022-12-26T06:58:54.751Z,5.57
2022-12-26T07:02:06.483Z,6.27
2022-12-26T07:05:10.038Z,6.03
2022-12-26T07:08:14.489Z,5.77
2022-12-26T07:11:20.134Z,6.53
2022-12-26T07:14:23.183Z,5.90
2022-12-26T07:17:26.223Z,5.43
2022-12-26T07:20:29.328Z,5.73
2022-12-26T07:23:34.101Z,6.40
2022-12-26T07:26:37.517Z,6.20
2022-12-26T07:29:40.866Z,6.90
2022-12-26T07:32:48.294Z,5.93
2022-12-26T07:35:52.804Z,6.63
2022-12-26T07:38:59.756Z,7.03
2022-12-26T07:42:07.089Z,7.17
2022-12-26T07:45:11.099Z,6.50
2022-12-26T07:48:14.237Z,5.97
2022-12-26T07:51:20.115Z,6.00
2022-12-26T07:54:28.576Z,5.40
2022-12-26T07:57:49.523Z,6.10
2022-12-26T08:00:52.956Z,5.77
2022-12-26T08:03:56.085Z,6.00
2022-12-26T08:06:59.424Z,5.83
2022-12-26T08:10:04.257Z,6.13
2022-12-26T08:13:09.787Z,6.70
2022-12-26T08:16:14.990Z,6.03
2022-12-26T08:19:21.394Z,5.60
2022-12-26T08:22:28.278Z,6.00
2022-12-26T08:25:32.794Z,5.87
2022-12-26T08:28:36.213Z,7.60
2022-12-26T08:31:39.864Z,5.37
2022-12-26T08:34:43.196Z,6.13
2022-12-26T08:37:48.292Z,8.53
2022-12-26T08:40:57.405Z,6.20
2022-12-26T08:44:26.123Z,6.73
2022-12-26T08:47:27.560Z,6.50
2022-12-26T08:50:30.861Z,5.90
2022-12-26T08:53:40.248Z,6.20
2022-12-26T08:56:47.156Z,7.20
2022-12-26T08:59:50.539Z,5.70
2022-12-26T09:02:53.932Z,6.37
2022-12-26T09:06:05.912Z,5.77
2022-12-26T09:09:17.043Z,6.63
2022-12-26T09:12:21.766Z,7.03
2022-12-26T09:15:25.080Z,6.67
2022-12-26T09:18:28.134Z,7.73
2022-12-26T09:21:31.871Z,6.60
2022-12-26T09:24:37.622Z,6.50
2022-12-26T09:27:45.176Z,7.67
2022-12-26T09:30:48.662Z,7.63
2022-12-26T09:33:55.488Z,7.27
2022-12-26T09:37:02.087Z,7.63
2022-12-26T09:40:07.000Z,7.00
2022-12-26T09:43:23.089Z,7.43
2022-12-26T09:46:33.759Z,6.67
2022-12-26T09:49:44.689Z,7.23
2022-12-26T09:52:54.295Z,6.93
2022-12-26T09:56:06.034Z,7.37
2022-12-26T09:59:19.305Z,6.50
2022-12-26T10:02:25.308Z,6.00
2022-12-26T10:05:37.258Z,5.53
2022-12-26T10:09:10.787Z,7.57
2022-12-26T10:12:34.879Z,5.97
2022-12-26T10:15:52.282Z,5.37
2022-12-26T10:19:06.340Z,6.20
2022-12-26T10:22:50.034Z,5.93
2022-12-26T10:25:58.599Z,6.03
2022-12-26T10:29:18.821Z,8.20
2022-12-26T10:32:30.946Z,6.27
2022-12-26T10:35:41.549Z,6.90
2022-12-26T10:38:50.317Z,6.10
2022-12-26T10:42:00.948Z,5.67
2022-12-26T10:45:15.644Z,5.30
2022-12-26T10:48:28.980Z,5.67
2022-12-26T10:51:32.632Z,5.43
2022-12-26T10:54:36.080Z,5.17
2022-12-26T10:57:41.463Z,5.63
2022-12-26T11:00:47.458Z,4.97
2022-12-26T11:03:59.906Z,4.60
2022-12-26T11:07:19.841Z,4.97
2022-12-26T11:10:27.397Z,4.80
2022-12-26T11:13:38.094Z,4.70
2022-12-26T11:16:54.989Z,4.37
2022-12-26T11:20:27.811Z,4.90
2022-12-26T11:23:41.403Z,5.20
2022-12-26T11:26:48.104Z,5.27
2022-12-26T11:30:13.011Z,4.57
2022-12-26T11:33:25.988Z,5.00
2022-12-26T11:36:32.755Z,4.83
2022-12-26T11:39:39.814Z,4.83
2022-12-26T11:42:43.463Z,5.17
2022-12-26T11:45:51.304Z,5.80
2022-12-26T11:48:59.813Z,4.97
2022-12-26T11:52:35.233Z,5.40
2022-12-26T11:55:40.498Z,5.90
2022-12-26T11:58:45.272Z,4.90
2022-12-26T12:01:51.554Z,5.43
2022-12-26T12:05:01.398Z,5.20
2022-12-26T12:08:27.317Z,4.60
2022-12-26T12:11:42.397Z,5.50
2022-12-26T12:15:01.690Z,4.90
2022-12-26T12:18:19.756Z,5.37
2022-12-26T12:21:33.133Z,5.20
2022-12-26T12:24:57.552Z,4.70
2022-12-26T12:28:17.867Z,5.17
2022-12-26T12:31:33.072Z,7.23
2022-12-26T12:35:03.571Z,6.60
2022-12-26T12:38:40.089Z,7.23
2022-12-26T12:42:06.370Z,5.87
2022-12-26T12:45:27.795Z,6.23
2022-12-26T12:48:52.157Z,8.17
2022-12-26T12:52:14.596Z,6.80
2022-12-26T12:56:00.789Z,6.83
2022-12-26T12:59:15.582Z,6.17
2022-12-26T13:02:26.807Z,7.23
2022-12-26T13:05:45.817Z,7.33
2022-12-26T13:08:54.317Z,4.97
2022-12-26T13:12:10.972Z,7.63
2022-12-26T13:16:35.572Z,5.73
2022-12-26T13:20:02.450Z,5.67
2022-12-26T13:23:29.895Z,5.00
2022-12-26T13:26:38.676Z,5.23
2022-12-26T13:29:44.641Z,6.60
2022-12-26T13:32:49.811Z,6.57
2022-12-26T13:35:59.217Z,7.10
2022-12-26T13:39:40.577Z,5.70
2022-12-26T13:43:09.147Z,5.83
2022-12-26T13:46:38.657Z,6.40
2022-12-26T13:49:43.334Z,5.40
2022-12-26T13:52:47.605Z,8.10
2022-12-26T13:55:55.003Z,7.13
2022-12-26T13:59:02.193Z,5.87
2022-12-26T14:03:23.744Z,7.17
2022-12-26T14:07:43.287Z,5.90
2022-12-26T14:11:03.897Z,6.40
2022-12-26T14:14:23.174Z,6.53
2022-12-26T14:17:48.075Z,6.10
2022-12-26T14:21:03.501Z,5.57
2022-12-26T14:24:39.592Z,5.80
2022-12-26T14:27:54.324Z,6.13
2022-12-26T14:31:12.585Z,6.07
2022-12-26T14:34:43.021Z,6.27
2022-12-26T14:38:02.251Z,7.10
2022-12-26T14:41:37.393Z,7.23
2022-12-26T14:44:44.728Z,6.70
2022-12-26T14:47:50.294Z,6.97
2022-12-26T14:50:55.961Z,6.47
2022-12-26T14:54:39.598Z,6.60
2022-12-26T14:57:49.467Z,6.67
2022-12-26T15:00:54.603Z,6.50
2022-12-26T15:04:00.777Z,6.63
2022-12-26T15:07:51.171Z,6.37
2022-12-26T15:11:37.424Z,6.57
2022-12-26T15:15:26.983Z,6.20
2022-12-26T15:19:21.447Z,5.97
2022-12-26T15:23:17.361Z,6.17
2022-12-26T15:27:10.376Z,6.67
2022-12-26T15:30:20.705Z,6.03
2022-12-26T15:33:31.398Z,6.10
2022-12-26T15:36:47.436Z,6.40
2022-12-26T15:40:08.197Z,7.00
2022-12-26T15:43:29.951Z,6.73
2022-12-26T15:46:44.239Z,6.40
2022-12-26T15:50:03.888Z,6.03
2022-12-26T15:53:23.977Z,6.93
2022-12-26T15:56:51.808Z,6.30
2022-12-26T16:00:16.963Z,5.67
2022-12-26T16:03:43.663Z,6.70
2022-12-26T16:07:10.843Z,6.17
2022-12-26T16:10:32.057Z,6.83
2022-12-26T16:13:35.752Z,5.97
2022-12-26T16:16:41.932Z,6.80
2022-12-26T16:19:48.384Z,6.87
2022-12-26T16:22:50.479Z,6.73
2022-12-26T16:25:56.324Z,6.17
2022-12-26T16:29:02.238Z,5.87
2022-12-26T16:32:07.467Z,5.13
2022-12-26T16:35:21.390Z,4.53
2022-12-26T16:38:30.799Z,5.40
2022-12-26T16:41:34.514Z,4.77
2022-12-26T16:44:39.810Z,4.63
2022-12-26T16:47:49.910Z,4.70
2022-12-26T16:50:58.132Z,4.70
2022-12-26T16:54:27.739Z,3.90
2022-12-26T16:57:36.341Z,4.00
2022-12-26T17:00:39.711Z,3.70
2022-12-26T17:03:52.150Z,4.00
2022-12-26T17:07:07.040Z,4.83
2022-12-26T17:10:24.217Z,3.67
2022-12-26T17:13:29.808Z,3.83
2022-12-26T17:16:34.052Z,3.47
2022-12-26T17:19:38.392Z,3.57
2022-12-26T17:22:44.935Z,4.50
2022-12-26T17:25:50.916Z,4.83
2022-12-26T17:28:54.482Z,4.83
2022-12-26T17:31:57.623Z,4.17
2022-12-26T17:35:08.699Z,4.00
2022-12-26T17:38:23.832Z,3.67
2022-12-26T17:41:26.973Z,3.63
2022-12-26T17:44:39.297Z,3.63
2022-12-26T17:47:42.475Z,3.57
2022-12-26T17:50:50.374Z,3.57
2022-12-26T17:53:54.753Z,3.30
2022-12-26T17:56:57.792Z,3.87
2022-12-26T18:00:00.887Z,3.80
2022-12-26T18:03:04.014Z,3.60
2022-12-26T18:06:07.367Z,3.60
2022-12-26T18:09:25.265Z,4.10
2022-12-26T18:12:28.487Z,5.23
2022-12-26T18:15:32.858Z,6.43
2022-12-26T18:18:38.350Z,4.50
2022-12-26T18:21:41.580Z,4.97
2022-12-26T18:24:46.583Z,5.93
2022-12-26T18:27:51.648Z,4.23
2022-12-26T18:30:55.154Z,4.40
2022-12-26T18:33:58.791Z,5.17
2022-12-26T18:37:01.805Z,5.87
2022-12-26T18:40:11.515Z,4.57
2022-12-26T18:43:15.487Z,5.00
2022-12-26T18:46:20.583Z,6.23
2022-12-26T18:49:25.776Z,6.10
2022-12-26T18:52:29.063Z,5.20
2022-12-26T18:55:33.909Z,4.77
2022-12-26T18:58:36.910Z,3.93
2022-12-26T19:01:39.964Z,4.30
2022-12-26T19:04:43.413Z,4.23
2022-12-26T19:07:48.276Z,4.10
2022-12-26T19:10:55.598Z,4.07
2022-12-26T19:14:00.770Z,3.63
2022-12-26T19:17:03.894Z,3.70
2022-12-26T19:20:09.254Z,3.40
2022-12-26T19:23:12.683Z,4.10
2022-12-26T19:26:19.944Z,3.30
2022-12-26T19:29:23.641Z,3.00
2022-12-26T19:32:26.827Z,3.67
2022-12-26T19:35:29.871Z,3.43
2022-12-26T19:38:33.083Z,3.13
2022-12-26T19:41:37.437Z,3.07
2022-12-26T19:44:42.961Z,3.10
2022-12-26T19:47:47.547Z,2.87
2022-12-26T19:50:50.722Z,2.83
2022-12-26T19:53:59.777Z,3.10
2022-12-26T19:57:10.673Z,3.70
2022-12-26T20:00:16.986Z,3.07
2022-12-26T20:03:20.290Z,3.60
2022-12-26T20:06:26.085Z,3.97
2022-12-26T20:09:31.876Z,3.90
2022-12-26T20:12:36.341Z,3.20
2022-12-26T20:15:42.508Z,4.10
2022-12-26T20:18:47.662Z,3.90
2022-12-26T20:21:51.316Z,3.20
2022-12-26T20:24:54.563Z,3.30
2022-12-26T20:28:02.145Z,3.20
2022-12-26T20:31:12.950Z,3.70
2022-12-26T20:34:16.436Z,3.77
2022-12-26T20:37:19.468Z,3.97
2022-12-26T20:40:25.266Z,3.80
2022-12-26T20:43:30.417Z,3.50
2022-12-26T20:46:37.755Z,3.87
2022-12-26T20:49:44.895Z,4.23
2022-12-26T20:52:48.222Z,3.57
2022-12-26T20:55:51.661Z,4.53
2022-12-26T20:59:01.051Z,3.77
2022-12-26T21:02:04.212Z,3.20
2022-12-26T21:05:08.013Z,3.43
2022-12-26T21:08:11.885Z,3.73
2022-12-26T21:11:20.496Z,3.90
2022-12-26T21:14:25.209Z,3.47
2022-12-26T21:17:28.348Z,4.40
2022-12-26T21:20:32.107Z,3.93
2022-12-26T21:23:36.570Z,4.03
2022-12-26T21:26:41.898Z,4.10
2022-12-26T21:29:46.338Z,3.73
2022-12-26T21:32:49.426Z,3.77
2022-12-26T21:35:53.365Z,3.77
2022-12-26T21:38:57.548Z,4.57
2022-12-26T21:42:01.836Z,3.80
2022-12-26T21:45:07.429Z,4.20
2022-12-26T21:48:10.680Z,3.90
2022-12-26T21:51:15.090Z,5.30
2022-12-26T21:54:35.989Z,5.77
2022-12-26T21:57:39.059Z,5.67
2022-12-26T22:00:43.895Z,5.83
2022-12-26T22:04:06.553Z,6.13
2022-12-26T22:07:19.470Z,6.03
2022-12-26T22:10:42.518Z,4.07
2022-12-26T22:13:53.057Z,4.43
2022-12-26T22:17:03.141Z,4.07
2022-12-26T22:20:10.580Z,4.50
2022-12-26T22:23:19.288Z,4.67
2022-12-26T22:26:33.995Z,4.63
2022-12-26T22:29:40.014Z,4.23
2022-12-26T22:32:49.508Z,3.97
2022-12-26T22:35:56.499Z,3.70
2022-12-26T22:39:02.649Z,4.43
2022-12-26T22:42:09.014Z,4.30
2022-12-26T22:45:13.292Z,4.50
2022-12-26T22:48:22.820Z,5.33
2022-12-26T22:51:27.885Z,4.13
2022-12-26T22:54:34.744Z,3.73
2022-12-26T22:57:37.987Z,4.20
2022-12-26T23:00:41.995Z,4.57
2022-12-26T23:03:49.270Z,5.03
2022-12-26T23:06:53.401Z,4.83
2022-12-26T23:09:56.968Z,4.43
2022-12-26T23:13:01.575Z,4.47
2022-12-26T23:16:22.400Z,4.57
2022-12-26T23:19:55.547Z,3.73
2022-12-26T23:23:05.364Z,3.67
2022-12-26T23:26:08.659Z,4.33
2022-12-26T23:29:35.880Z,4.10
2022-12-26T23:32:43.624Z,4.47
2022-12-26T23:35:48.194Z,4.17
2022-12-26T23:38:53.701Z,4.07
2022-12-26T23:42:03.665Z,4.63
2022-12-26T23:45:13.477Z,4.70
2022-12-26T23:48:22.148Z,4.23
2022-12-26T23:51:26.995Z,4.50
2022-12-26T23:54:32.546Z,4.03
2022-12-26T23:57:35.766Z,4.47
